sensor_id;sensor_type;location;lat;lon;timestamp;temperature;humidity
40534;DHT22;26233;51.894;10.192;2023-04-25T00:02:00;10.00;39.40
40534;DHT22;26233;51.894;10.192;2023-04-25T00:04:28;10.00;39.40
40534;DHT22;26233;51.894;10.192;2023-04-25T00:06:59;10.00;39.50
40534;DHT22;26233;51.894;10.192;2023-04-25T00:09:29;10.00;39.40
40534;DHT22;26233;51.894;10.192;2023-04-25T00:11:56;10.00;39.40
40534;DHT22;26233;51.894;10.192;2023-04-25T00:14:23;9.90;40.30
40534;DHT22;26233;51.894;10.192;2023-04-25T00:16:51;9.90;40.40
40534;DHT22;26233;51.894;10.192;2023-04-25T00:19:19;9.90;40.50
40534;DHT22;26233;51.894;10.192;2023-04-25T00:21:46;9.90;40.50
40534;DHT22;26233;51.894;10.192;2023-04-25T00:24:13;9.90;40.50
40534;DHT22;26233;51.894;10.192;2023-04-25T00:26:42;9.90;40.60
40534;DHT22;26233;51.894;10.192;2023-04-25T00:29:09;9.90;40.50
40534;DHT22;26233;51.894;10.192;2023-04-25T00:31:36;9.90;40.50
40534;DHT22;26233;51.894;10.192;2023-04-25T00:34:03;9.90;40.50
40534;DHT22;26233;51.894;10.192;2023-04-25T00:36:30;9.90;40.50
40534;DHT22;26233;51.894;10.192;2023-04-25T00:38:57;9.80;40.50
40534;DHT22;26233;51.894;10.192;2023-04-25T00:41:25;9.80;40.50
40534;DHT22;26233;51.894;10.192;2023-04-25T00:43:54;9.80;40.50
40534;DHT22;26233;51.894;10.192;2023-04-25T00:46:22;9.80;40.50
40534;DHT22;26233;51.894;10.192;2023-04-25T00:48:49;9.80;40.60
40534;DHT22;26233;51.894;10.192;2023-04-25T00:51:19;9.80;40.60
40534;DHT22;26233;51.894;10.192;2023-04-25T00:53:47;9.80;40.60
40534;DHT22;26233;51.894;10.192;2023-04-25T00:56:16;9.80;40.60
40534;DHT22;26233;51.894;10.192;2023-04-25T00:58:43;9.80;40.70
40534;DHT22;26233;51.894;10.192;2023-04-25T01:01:11;9.90;40.70
40534;DHT22;26233;51.894;10.192;2023-04-25T01:03:39;9.80;40.70
40534;DHT22;26233;51.894;10.192;2023-04-25T01:06:07;9.80;40.70
40534;DHT22;26233;51.894;10.192;2023-04-25T01:08:36;9.80;40.70
40534;DHT22;26233;51.894;10.192;2023-04-25T01:11:04;9.80;40.70
40534;DHT22;26233;51.894;10.192;2023-04-25T01:13:31;9.70;40.60
40534;DHT22;26233;51.894;10.192;2023-04-25T01:15:59;9.80;40.70
40534;DHT22;26233;51.894;10.192;2023-04-25T01:18:28;9.70;40.60
40534;DHT22;26233;51.894;10.192;2023-04-25T01:20:55;9.80;40.70
40534;DHT22;26233;51.894;10.192;2023-04-25T01:23:23;9.70;40.70
40534;DHT22;26233;51.894;10.192;2023-04-25T01:25:51;9.80;40.80
40534;DHT22;26233;51.894;10.192;2023-04-25T01:28:18;9.70;40.70
40534;DHT22;26233;51.894;10.192;2023-04-25T01:30:46;9.70;40.70
40534;DHT22;26233;51.894;10.192;2023-04-25T01:33:16;9.70;40.70
40534;DHT22;26233;51.894;10.192;2023-04-25T01:35:43;9.70;40.80
40534;DHT22;26233;51.894;10.192;2023-04-25T01:38:12;9.70;40.70
40534;DHT22;26233;51.894;10.192;2023-04-25T01:40:40;9.70;40.70
40534;DHT22;26233;51.894;10.192;2023-04-25T01:43:08;9.70;40.80
40534;DHT22;26233;51.894;10.192;2023-04-25T01:45:36;9.70;40.70
40534;DHT22;26233;51.894;10.192;2023-04-25T01:48:05;9.80;40.80
40534;DHT22;26233;51.894;10.192;2023-04-25T01:50:32;9.70;40.60
40534;DHT22;26233;51.894;10.192;2023-04-25T01:52:59;9.70;40.70
40534;DHT22;26233;51.894;10.192;2023-04-25T01:55:27;9.70;40.70
40534;DHT22;26233;51.894;10.192;2023-04-25T01:57:55;9.70;40.80
40534;DHT22;26233;51.894;10.192;2023-04-25T02:00:23;9.70;40.80
40534;DHT22;26233;51.894;10.192;2023-04-25T02:02:50;9.70;40.80
40534;DHT22;26233;51.894;10.192;2023-04-25T02:05:19;9.70;40.90
40534;DHT22;26233;51.894;10.192;2023-04-25T02:07:47;9.70;40.90
40534;DHT22;26233;51.894;10.192;2023-04-25T02:10:14;9.70;40.90
40534;DHT22;26233;51.894;10.192;2023-04-25T02:12:41;9.70;40.90
40534;DHT22;26233;51.894;10.192;2023-04-25T02:15:10;9.70;40.90
40534;DHT22;26233;51.894;10.192;2023-04-25T02:17:37;9.70;40.90
40534;DHT22;26233;51.894;10.192;2023-04-25T02:20:05;9.70;40.90
40534;DHT22;26233;51.894;10.192;2023-04-25T02:22:33;9.70;40.90
40534;DHT22;26233;51.894;10.192;2023-04-25T02:25:01;9.70;40.90
40534;DHT22;26233;51.894;10.192;2023-04-25T02:27:30;9.70;40.90
40534;DHT22;26233;51.894;10.192;2023-04-25T02:29:57;9.60;40.80
40534;DHT22;26233;51.894;10.192;2023-04-25T02:32:25;9.60;40.80
40534;DHT22;26233;51.894;10.192;2023-04-25T02:34:52;9.70;40.90
40534;DHT22;26233;51.894;10.192;2023-04-25T02:37:20;9.60;40.80
40534;DHT22;26233;51.894;10.192;2023-04-25T02:39:47;9.60;40.80
40534;DHT22;26233;51.894;10.192;2023-04-25T02:42:14;9.60;40.80
40534;DHT22;26233;51.894;10.192;2023-04-25T02:44:40;9.60;40.90
40534;DHT22;26233;51.894;10.192;2023-04-25T02:47:08;9.50;40.80
40534;DHT22;26233;51.894;10.192;2023-04-25T02:49:39;9.50;40.80
40534;DHT22;26233;51.894;10.192;2023-04-25T02:52:06;9.50;40.90
40534;DHT22;26233;51.894;10.192;2023-04-25T02:54:34;9.50;40.90
40534;DHT22;26233;51.894;10.192;2023-04-25T02:57:01;9.50;40.90
40534;DHT22;26233;51.894;10.192;2023-04-25T02:59:28;9.40;40.90
40534;DHT22;26233;51.894;10.192;2023-04-25T03:01:55;9.40;40.90
40534;DHT22;26233;51.894;10.192;2023-04-25T03:04:23;9.40;40.90
40534;DHT22;26233;51.894;10.192;2023-04-25T03:06:51;9.40;41.00
40534;DHT22;26233;51.894;10.192;2023-04-25T03:09:19;9.40;41.00
40534;DHT22;26233;51.894;10.192;2023-04-25T03:11:46;9.40;41.00
40534;DHT22;26233;51.894;10.192;2023-04-25T03:14:13;9.40;41.70
40534;DHT22;26233;51.894;10.192;2023-04-25T03:16:40;9.40;41.20
40534;DHT22;26233;51.894;10.192;2023-04-25T03:19:07;9.40;41.20
40534;DHT22;26233;51.894;10.192;2023-04-25T03:21:35;9.40;41.40
40534;DHT22;26233;51.894;10.192;2023-04-25T03:24:06;9.30;41.40
40534;DHT22;26233;51.894;10.192;2023-04-25T03:26:33;9.30;41.50
40534;DHT22;26233;51.894;10.192;2023-04-25T03:29:00;9.30;42.10
40534;DHT22;26233;51.894;10.192;2023-04-25T03:31:27;9.30;41.50
40534;DHT22;26233;51.894;10.192;2023-04-25T03:33:54;9.30;41.60
40534;DHT22;26233;51.894;10.192;2023-04-25T03:36:21;9.30;41.70
40534;DHT22;26233;51.894;10.192;2023-04-25T03:38:48;9.30;41.60
40534;DHT22;26233;51.894;10.192;2023-04-25T03:41:16;9.30;41.60
40534;DHT22;26233;51.894;10.192;2023-04-25T03:43:43;9.30;41.70
40534;DHT22;26233;51.894;10.192;2023-04-25T03:46:10;9.30;41.70
40534;DHT22;26233;51.894;10.192;2023-04-25T03:48:39;9.30;41.90
40534;DHT22;26233;51.894;10.192;2023-04-25T03:51:06;9.30;42.60
40534;DHT22;26233;51.894;10.192;2023-04-25T03:53:33;9.40;42.30
40534;DHT22;26233;51.894;10.192;2023-04-25T03:56:00;9.30;42.10
40534;DHT22;26233;51.894;10.192;2023-04-25T03:58:28;9.40;42.30
40534;DHT22;26233;51.894;10.192;2023-04-25T04:00:55;9.40;42.30
40534;DHT22;26233;51.894;10.192;2023-04-25T04:03:25;9.40;42.40
40534;DHT22;26233;51.894;10.192;2023-04-25T04:05:52;9.40;42.50
40534;DHT22;26233;51.894;10.192;2023-04-25T04:08:19;9.40;42.50
40534;DHT22;26233;51.894;10.192;2023-04-25T04:10:46;9.40;42.50
40534;DHT22;26233;51.894;10.192;2023-04-25T04:13:13;9.40;42.60
40534;DHT22;26233;51.894;10.192;2023-04-25T04:15:42;9.40;42.60
40534;DHT22;26233;51.894;10.192;2023-04-25T04:18:09;9.50;42.70
40534;DHT22;26233;51.894;10.192;2023-04-25T04:20:36;9.40;42.60
40534;DHT22;26233;51.894;10.192;2023-04-25T04:23:03;9.50;42.60
40534;DHT22;26233;51.894;10.192;2023-04-25T04:25:30;9.40;42.50
40534;DHT22;26233;51.894;10.192;2023-04-25T04:27:57;9.40;42.60
40534;DHT22;26233;51.894;10.192;2023-04-25T04:30:26;9.30;42.70
40534;DHT22;26233;51.894;10.192;2023-04-25T04:32:56;9.30;42.60
40534;DHT22;26233;51.894;10.192;2023-04-25T04:35:23;9.30;42.60
40534;DHT22;26233;51.894;10.192;2023-04-25T04:37:50;9.20;42.60
40534;DHT22;26233;51.894;10.192;2023-04-25T04:40:17;9.20;42.70
40534;DHT22;26233;51.894;10.192;2023-04-25T04:42:46;9.20;42.80
40534;DHT22;26233;51.894;10.192;2023-04-25T04:45:14;9.20;42.70
40534;DHT22;26233;51.894;10.192;2023-04-25T04:47:42;9.20;42.70
40534;DHT22;26233;51.894;10.192;2023-04-25T04:50:11;9.10;42.60
40534;DHT22;26233;51.894;10.192;2023-04-25T04:52:38;9.10;42.60
40534;DHT22;26233;51.894;10.192;2023-04-25T04:55:06;9.10;42.50
40534;DHT22;26233;51.894;10.192;2023-04-25T04:57:34;9.00;42.60
40534;DHT22;26233;51.894;10.192;2023-04-25T05:00:01;9.00;42.60
40534;DHT22;26233;51.894;10.192;2023-04-25T05:02:33;9.00;42.60
40534;DHT22;26233;51.894;10.192;2023-04-25T05:05:00;9.00;42.50
40534;DHT22;26233;51.894;10.192;2023-04-25T05:07:29;9.00;42.70
40534;DHT22;26233;51.894;10.192;2023-04-25T05:09:56;9.00;43.30
40534;DHT22;26233;51.894;10.192;2023-04-25T05:12:23;8.90;42.70
40534;DHT22;26233;51.894;10.192;2023-04-25T05:14:50;8.90;42.80
40534;DHT22;26233;51.894;10.192;2023-04-25T05:17:17;9.00;42.90
40534;DHT22;26233;51.894;10.192;2023-04-25T05:19:43;9.00;43.00
40534;DHT22;26233;51.894;10.192;2023-04-25T05:22:10;9.00;43.00
40534;DHT22;26233;51.894;10.192;2023-04-25T05:24:39;9.10;43.60
40534;DHT22;26233;51.894;10.192;2023-04-25T05:27:06;9.10;43.10
40534;DHT22;26233;51.894;10.192;2023-04-25T05:29:33;9.00;43.00
40534;DHT22;26233;51.894;10.192;2023-04-25T05:32:00;9.10;43.20
40534;DHT22;26233;51.894;10.192;2023-04-25T05:34:27;9.10;43.20
40534;DHT22;26233;51.894;10.192;2023-04-25T05:36:54;9.20;43.40
40534;DHT22;26233;51.894;10.192;2023-04-25T05:39:21;9.20;43.30
40534;DHT22;26233;51.894;10.192;2023-04-25T05:41:50;9.30;43.40
40534;DHT22;26233;51.894;10.192;2023-04-25T05:44:17;9.30;43.30
40534;DHT22;26233;51.894;10.192;2023-04-25T05:46:44;9.40;43.30
40534;DHT22;26233;51.894;10.192;2023-04-25T05:49:11;9.40;43.30
40534;DHT22;26233;51.894;10.192;2023-04-25T05:51:38;9.40;43.30
40534;DHT22;26233;51.894;10.192;2023-04-25T05:54:05;9.40;43.30
40534;DHT22;26233;51.894;10.192;2023-04-25T05:56:32;9.40;43.30
40534;DHT22;26233;51.894;10.192;2023-04-25T05:59:00;9.40;43.20
40534;DHT22;26233;51.894;10.192;2023-04-25T06:01:27;9.50;43.30
40534;DHT22;26233;51.894;10.192;2023-04-25T06:03:54;9.50;43.30
40534;DHT22;26233;51.894;10.192;2023-04-25T06:06:21;9.50;43.20
40534;DHT22;26233;51.894;10.192;2023-04-25T06:08:48;9.50;43.30
40534;DHT22;26233;51.894;10.192;2023-04-25T06:11:15;9.50;43.20
40534;DHT22;26233;51.894;10.192;2023-04-25T06:13:42;9.50;43.20
40534;DHT22;26233;51.894;10.192;2023-04-25T06:16:11;9.40;43.20
40534;DHT22;26233;51.894;10.192;2023-04-25T06:18:38;9.40;43.20
40534;DHT22;26233;51.894;10.192;2023-04-25T06:21:05;9.50;43.30
40534;DHT22;26233;51.894;10.192;2023-04-25T06:23:32;9.50;43.20
40534;DHT22;26233;51.894;10.192;2023-04-25T06:25:59;9.50;43.20
40534;DHT22;26233;51.894;10.192;2023-04-25T06:28:26;9.50;43.80
40534;DHT22;26233;51.894;10.192;2023-04-25T06:30:53;9.50;43.20
40534;DHT22;26233;51.894;10.192;2023-04-25T06:33:21;9.60;43.30
40534;DHT22;26233;51.894;10.192;2023-04-25T06:35:49;9.60;43.10
40534;DHT22;26233;51.894;10.192;2023-04-25T06:38:16;9.60;43.00
40534;DHT22;26233;51.894;10.192;2023-04-25T06:40:43;9.60;43.10
40534;DHT22;26233;51.894;10.192;2023-04-25T06:43:10;9.60;43.10
40534;DHT22;26233;51.894;10.192;2023-04-25T06:45:37;9.60;43.10
40534;DHT22;26233;51.894;10.192;2023-04-25T06:48:05;9.60;43.10
40534;DHT22;26233;51.894;10.192;2023-04-25T06:50:33;9.60;43.10
40534;DHT22;26233;51.894;10.192;2023-04-25T06:53:00;9.70;43.10
40534;DHT22;26233;51.894;10.192;2023-04-25T06:55:28;9.70;43.10
40534;DHT22;26233;51.894;10.192;2023-04-25T06:57:55;9.70;43.00
40534;DHT22;26233;51.894;10.192;2023-04-25T07:00:22;9.70;42.90
40534;DHT22;26233;51.894;10.192;2023-04-25T07:02:49;9.70;43.00
40534;DHT22;26233;51.894;10.192;2023-04-25T07:05:16;9.70;43.00
40534;DHT22;26233;51.894;10.192;2023-04-25T07:07:45;9.60;42.80
40534;DHT22;26233;51.894;10.192;2023-04-25T07:10:15;9.60;43.40
40534;DHT22;26233;51.894;10.192;2023-04-25T07:12:42;9.60;42.70
40534;DHT22;26233;51.894;10.192;2023-04-25T07:15:09;9.60;42.70
40534;DHT22;26233;51.894;10.192;2023-04-25T07:17:37;9.60;42.70
40534;DHT22;26233;51.894;10.192;2023-04-25T07:20:05;9.60;42.70
40534;DHT22;26233;51.894;10.192;2023-04-25T07:22:33;9.60;42.80
40534;DHT22;26233;51.894;10.192;2023-04-25T07:25:01;9.60;42.70
40534;DHT22;26233;51.894;10.192;2023-04-25T07:27:31;9.70;42.80
40534;DHT22;26233;51.894;10.192;2023-04-25T07:29:58;9.70;43.10
40534;DHT22;26233;51.894;10.192;2023-04-25T07:32:25;9.70;43.00
40534;DHT22;26233;51.894;10.192;2023-04-25T07:34:53;9.80;43.00
40534;DHT22;26233;51.894;10.192;2023-04-25T07:37:20;9.90;43.00
40534;DHT22;26233;51.894;10.192;2023-04-25T07:39:47;9.80;42.80
40534;DHT22;26233;51.894;10.192;2023-04-25T07:42:15;10.00;42.00
40534;DHT22;26233;51.894;10.192;2023-04-25T07:44:42;10.10;42.40
40534;DHT22;26233;51.894;10.192;2023-04-25T07:47:10;10.30;42.70
40534;DHT22;26233;51.894;10.192;2023-04-25T07:49:37;10.50;42.50
40534;DHT22;26233;51.894;10.192;2023-04-25T07:52:06;10.70;42.60
40534;DHT22;26233;51.894;10.192;2023-04-25T07:54:34;10.90;42.60
40534;DHT22;26233;51.894;10.192;2023-04-25T07:57:01;11.10;42.60
40534;DHT22;26233;51.894;10.192;2023-04-25T07:59:29;11.30;42.90
40534;DHT22;26233;51.894;10.192;2023-04-25T08:01:57;11.50;42.50
40534;DHT22;26233;51.894;10.192;2023-04-25T08:04:24;11.60;41.80
40534;DHT22;26233;51.894;10.192;2023-04-25T08:06:51;11.70;41.80
40534;DHT22;26233;51.894;10.192;2023-04-25T08:09:19;11.90;41.80
40534;DHT22;26233;51.894;10.192;2023-04-25T08:11:46;12.00;42.00
40534;DHT22;26233;51.894;10.192;2023-04-25T08:14:14;12.20;41.70
40534;DHT22;26233;51.894;10.192;2023-04-25T08:16:42;12.30;41.80
40534;DHT22;26233;51.894;10.192;2023-04-25T08:19:09;12.60;42.70
40534;DHT22;26233;51.894;10.192;2023-04-25T08:21:37;13.10;44.40
40534;DHT22;26233;51.894;10.192;2023-04-25T08:24:04;13.60;44.20
40534;DHT22;26233;51.894;10.192;2023-04-25T08:26:32;14.00;43.00
40534;DHT22;26233;51.894;10.192;2023-04-25T08:29:00;14.30;42.50
40534;DHT22;26233;51.894;10.192;2023-04-25T08:31:27;14.60;42.40
40534;DHT22;26233;51.894;10.192;2023-04-25T08:33:55;15.00;42.60
40534;DHT22;26233;51.894;10.192;2023-04-25T08:36:22;15.20;41.70
40534;DHT22;26233;51.894;10.192;2023-04-25T08:38:49;15.30;39.40
40534;DHT22;26233;51.894;10.192;2023-04-25T08:41:18;15.20;39.00
40534;DHT22;26233;51.894;10.192;2023-04-25T08:43:47;15.00;37.80
40534;DHT22;26233;51.894;10.192;2023-04-25T08:46:17;14.70;37.00
40534;DHT22;26233;51.894;10.192;2023-04-25T08:48:46;14.30;36.80
40534;DHT22;26233;51.894;10.192;2023-04-25T08:51:22;13.90;36.90
40534;DHT22;26233;51.894;10.192;2023-04-25T08:53:51;13.60;36.60
40534;DHT22;26233;51.894;10.192;2023-04-25T08:56:19;13.30;37.00
40534;DHT22;26233;51.894;10.192;2023-04-25T08:58:49;13.10;36.90
40534;DHT22;26233;51.894;10.192;2023-04-25T09:01:17;12.90;37.10
40534;DHT22;26233;51.894;10.192;2023-04-25T09:03:45;12.70;37.20
40534;DHT22;26233;51.894;10.192;2023-04-25T09:06:14;12.70;37.20
40534;DHT22;26233;51.894;10.192;2023-04-25T09:08:42;12.50;37.30
40534;DHT22;26233;51.894;10.192;2023-04-25T09:11:09;12.30;37.30
40534;DHT22;26233;51.894;10.192;2023-04-25T09:13:37;12.30;38.00
40534;DHT22;26233;51.894;10.192;2023-04-25T09:16:04;12.20;37.50
40534;DHT22;26233;51.894;10.192;2023-04-25T09:18:32;12.20;37.70
40534;DHT22;26233;51.894;10.192;2023-04-25T09:21:06;12.20;37.80
40534;DHT22;26233;51.894;10.192;2023-04-25T09:23:41;12.30;38.10
40534;DHT22;26233;51.894;10.192;2023-04-25T09:26:14;12.50;38.70
40534;DHT22;26233;51.894;10.192;2023-04-25T09:28:42;12.80;39.10
40534;DHT22;26233;51.894;10.192;2023-04-25T09:31:10;13.00;38.80
40534;DHT22;26233;51.894;10.192;2023-04-25T09:33:37;13.10;38.30
40534;DHT22;26233;51.894;10.192;2023-04-25T09:36:07;13.10;37.50
40534;DHT22;26233;51.894;10.192;2023-04-25T09:38:42;13.10;36.90
40534;DHT22;26233;51.894;10.192;2023-04-25T09:41:10;13.00;36.40
40534;DHT22;26233;51.894;10.192;2023-04-25T09:43:38;12.80;36.10
40534;DHT22;26233;51.894;10.192;2023-04-25T09:46:08;12.60;35.50
40534;DHT22;26233;51.894;10.192;2023-04-25T09:48:36;12.40;35.50
40534;DHT22;26233;51.894;10.192;2023-04-25T09:51:05;12.20;35.70
40534;DHT22;26233;51.894;10.192;2023-04-25T09:53:33;12.10;36.00
40534;DHT22;26233;51.894;10.192;2023-04-25T09:56:03;12.00;36.20
40534;DHT22;26233;51.894;10.192;2023-04-25T09:58:32;11.90;36.00
40534;DHT22;26233;51.894;10.192;2023-04-25T10:01:01;11.80;36.20
40534;DHT22;26233;51.894;10.192;2023-04-25T10:03:33;11.80;36.40
40534;DHT22;26233;51.894;10.192;2023-04-25T10:06:02;11.80;36.40
40534;DHT22;26233;51.894;10.192;2023-04-25T10:08:33;11.70;36.70
40534;DHT22;26233;51.894;10.192;2023-04-25T10:11:04;11.90;37.30
40534;DHT22;26233;51.894;10.192;2023-04-25T10:13:33;12.00;37.50
40534;DHT22;26233;51.894;10.192;2023-04-25T10:16:02;12.10;37.50
40534;DHT22;26233;51.894;10.192;2023-04-25T10:18:31;12.30;37.40
40534;DHT22;26233;51.894;10.192;2023-04-25T10:21:00;12.40;36.90
40534;DHT22;26233;51.894;10.192;2023-04-25T10:23:30;12.40;36.50
40534;DHT22;26233;51.894;10.192;2023-04-25T10:25:58;12.30;36.10
40534;DHT22;26233;51.894;10.192;2023-04-25T10:28:27;12.30;35.90
40534;DHT22;26233;51.894;10.192;2023-04-25T10:30:57;12.20;35.70
40534;DHT22;26233;51.894;10.192;2023-04-25T10:33:35;12.10;35.50
40534;DHT22;26233;51.894;10.192;2023-04-25T10:36:10;12.10;35.40
40534;DHT22;26233;51.894;10.192;2023-04-25T10:38:38;12.00;35.60
40534;DHT22;26233;51.894;10.192;2023-04-25T10:41:09;11.90;35.70
40534;DHT22;26233;51.894;10.192;2023-04-25T10:43:39;11.80;35.60
40534;DHT22;26233;51.894;10.192;2023-04-25T10:46:16;11.80;35.70
40534;DHT22;26233;51.894;10.192;2023-04-25T10:48:46;11.70;35.60
40534;DHT22;26233;51.894;10.192;2023-04-25T10:51:20;11.70;35.80
40534;DHT22;26233;51.894;10.192;2023-04-25T10:53:57;11.70;35.80
40534;DHT22;26233;51.894;10.192;2023-04-25T10:56:28;11.60;36.00
40534;DHT22;26233;51.894;10.192;2023-04-25T10:59:08;11.70;36.30
40534;DHT22;26233;51.894;10.192;2023-04-25T11:01:37;11.70;36.20
40534;DHT22;26233;51.894;10.192;2023-04-25T11:04:06;11.80;36.50
40534;DHT22;26233;51.894;10.192;2023-04-25T11:06:55;11.80;36.40
40534;DHT22;26233;51.894;10.192;2023-04-25T11:09:28;11.90;36.10
40534;DHT22;26233;51.894;10.192;2023-04-25T11:11:56;11.80;36.00
40534;DHT22;26233;51.894;10.192;2023-04-25T11:14:25;11.80;36.10
40534;DHT22;26233;51.894;10.192;2023-04-25T11:16:53;11.80;36.20
40534;DHT22;26233;51.894;10.192;2023-04-25T11:19:21;11.80;36.30
40534;DHT22;26233;51.894;10.192;2023-04-25T11:21:48;11.90;36.50
40534;DHT22;26233;51.894;10.192;2023-04-25T11:24:16;12.00;36.60
40534;DHT22;26233;51.894;10.192;2023-04-25T11:26:43;12.10;36.60
40534;DHT22;26233;51.894;10.192;2023-04-25T11:29:13;12.30;36.50
40534;DHT22;26233;51.894;10.192;2023-04-25T11:31:44;12.20;36.30
40534;DHT22;26233;51.894;10.192;2023-04-25T11:34:11;12.20;36.00
40534;DHT22;26233;51.894;10.192;2023-04-25T11:36:44;12.20;36.00
40534;DHT22;26233;51.894;10.192;2023-04-25T11:39:12;12.20;36.00
40534;DHT22;26233;51.894;10.192;2023-04-25T11:41:41;12.30;36.20
40534;DHT22;26233;51.894;10.192;2023-04-25T11:44:08;12.40;35.80
40534;DHT22;26233;51.894;10.192;2023-04-25T11:46:35;12.40;36.30
40534;DHT22;26233;51.894;10.192;2023-04-25T11:49:04;12.60;36.80
40534;DHT22;26233;51.894;10.192;2023-04-25T11:51:38;12.80;36.70
40534;DHT22;26233;51.894;10.192;2023-04-25T11:54:06;13.00;36.90
40534;DHT22;26233;51.894;10.192;2023-04-25T11:56:33;13.40;38.00
40534;DHT22;26233;51.894;10.192;2023-04-25T11:59:02;13.80;38.20
40534;DHT22;26233;51.894;10.192;2023-04-25T12:01:31;14.20;37.90
40534;DHT22;26233;51.894;10.192;2023-04-25T12:04:09;14.60;38.00
40534;DHT22;26233;51.894;10.192;2023-04-25T12:06:39;14.90;37.80
40534;DHT22;26233;51.894;10.192;2023-04-25T12:09:09;15.30;37.50
40534;DHT22;26233;51.894;10.192;2023-04-25T12:11:43;15.60;37.00
40534;DHT22;26233;51.894;10.192;2023-04-25T12:14:11;15.80;36.20
40534;DHT22;26233;51.894;10.192;2023-04-25T12:16:42;16.10;36.20
40534;DHT22;26233;51.894;10.192;2023-04-25T12:19:13;16.30;35.90
40534;DHT22;26233;51.894;10.192;2023-04-25T12:21:41;16.60;36.10
40534;DHT22;26233;51.894;10.192;2023-04-25T12:24:12;16.90;36.60
40534;DHT22;26233;51.894;10.192;2023-04-25T12:26:49;17.00;35.80
40534;DHT22;26233;51.894;10.192;2023-04-25T12:29:22;17.20;35.20
40534;DHT22;26233;51.894;10.192;2023-04-25T12:31:51;17.50;35.00
40534;DHT22;26233;51.894;10.192;2023-04-25T12:34:22;17.60;35.40
40534;DHT22;26233;51.894;10.192;2023-04-25T12:36:50;17.80;34.70
40534;DHT22;26233;51.894;10.192;2023-04-25T12:39:18;17.90;35.00
40534;DHT22;26233;51.894;10.192;2023-04-25T12:41:47;18.00;34.70
40534;DHT22;26233;51.894;10.192;2023-04-25T12:44:15;18.00;34.00
40534;DHT22;26233;51.894;10.192;2023-04-25T12:46:42;17.90;33.30
40534;DHT22;26233;51.894;10.192;2023-04-25T12:49:12;17.60;32.30
40534;DHT22;26233;51.894;10.192;2023-04-25T12:51:41;17.30;32.00
40534;DHT22;26233;51.894;10.192;2023-04-25T12:54:08;16.90;31.50
40534;DHT22;26233;51.894;10.192;2023-04-25T12:56:36;16.50;31.50
40534;DHT22;26233;51.894;10.192;2023-04-25T12:59:03;16.00;30.90
40534;DHT22;26233;51.894;10.192;2023-04-25T13:01:30;15.50;30.50
40534;DHT22;26233;51.894;10.192;2023-04-25T13:03:57;15.10;30.70
40534;DHT22;26233;51.894;10.192;2023-04-25T13:06:24;14.70;30.70
40534;DHT22;26233;51.894;10.192;2023-04-25T13:08:53;14.30;30.80
40534;DHT22;26233;51.894;10.192;2023-04-25T13:11:20;14.00;30.80
40534;DHT22;26233;51.894;10.192;2023-04-25T13:13:47;13.70;31.20
40534;DHT22;26233;51.894;10.192;2023-04-25T13:16:14;13.60;31.90
40534;DHT22;26233;51.894;10.192;2023-04-25T13:18:42;13.60;32.70
40534;DHT22;26233;51.894;10.192;2023-04-25T13:21:09;13.70;33.20
40534;DHT22;26233;51.894;10.192;2023-04-25T13:23:37;13.80;33.40
40534;DHT22;26233;51.894;10.192;2023-04-25T13:26:06;14.00;33.20
40534;DHT22;26233;51.894;10.192;2023-04-25T13:28:33;14.10;34.10
40534;DHT22;26233;51.894;10.192;2023-04-25T13:31:00;14.30;33.40
40534;DHT22;26233;51.894;10.192;2023-04-25T13:33:27;14.60;33.70
40534;DHT22;26233;51.894;10.192;2023-04-25T13:35:55;14.80;33.60
40534;DHT22;26233;51.894;10.192;2023-04-25T13:38:23;15.10;33.70
40534;DHT22;26233;51.894;10.192;2023-04-25T13:40:51;15.30;33.60
40534;DHT22;26233;51.894;10.192;2023-04-25T13:43:21;15.60;33.70
40534;DHT22;26233;51.894;10.192;2023-04-25T13:45:49;15.80;33.30
40534;DHT22;26233;51.894;10.192;2023-04-25T13:48:17;15.90;32.50
40534;DHT22;26233;51.894;10.192;2023-04-25T13:50:45;15.90;32.00
40534;DHT22;26233;51.894;10.192;2023-04-25T13:53:12;15.90;32.00
40534;DHT22;26233;51.894;10.192;2023-04-25T13:55:39;15.80;31.90
40534;DHT22;26233;51.894;10.192;2023-04-25T13:58:06;15.70;31.60
40534;DHT22;26233;51.894;10.192;2023-04-25T14:00:37;15.50;31.40
40534;DHT22;26233;51.894;10.192;2023-04-25T14:03:05;15.30;31.50
40534;DHT22;26233;51.894;10.192;2023-04-25T14:05:34;15.20;31.30
40534;DHT22;26233;51.894;10.192;2023-04-25T14:08:06;15.00;31.10
40534;DHT22;26233;51.894;10.192;2023-04-25T14:10:34;14.80;30.50
40534;DHT22;26233;51.894;10.192;2023-04-25T14:13:01;14.70;30.90
40534;DHT22;26233;51.894;10.192;2023-04-25T14:15:29;14.50;31.00
40534;DHT22;26233;51.894;10.192;2023-04-25T14:17:58;14.40;30.90
40534;DHT22;26233;51.894;10.192;2023-04-25T14:20:26;14.30;30.60
40534;DHT22;26233;51.894;10.192;2023-04-25T14:22:54;14.10;30.40
40534;DHT22;26233;51.894;10.192;2023-04-25T14:25:23;13.90;30.00
40534;DHT22;26233;51.894;10.192;2023-04-25T14:27:50;13.70;30.30
40534;DHT22;26233;51.894;10.192;2023-04-25T14:30:18;13.50;30.20
40534;DHT22;26233;51.894;10.192;2023-04-25T14:32:47;13.30;30.10
40534;DHT22;26233;51.894;10.192;2023-04-25T14:35:16;13.20;30.40
40534;DHT22;26233;51.894;10.192;2023-04-25T14:37:43;13.00;30.50
40534;DHT22;26233;51.894;10.192;2023-04-25T14:40:11;12.90;30.70
40534;DHT22;26233;51.894;10.192;2023-04-25T14:42:40;12.80;30.90
40534;DHT22;26233;51.894;10.192;2023-04-25T14:45:08;12.80;31.20
40534;DHT22;26233;51.894;10.192;2023-04-25T14:47:36;12.80;31.40
40534;DHT22;26233;51.894;10.192;2023-04-25T14:50:04;12.80;31.50
40534;DHT22;26233;51.894;10.192;2023-04-25T14:52:33;12.80;31.70
40534;DHT22;26233;51.894;10.192;2023-04-25T14:55:00;12.80;32.00
40534;DHT22;26233;51.894;10.192;2023-04-25T14:57:30;12.90;32.40
40534;DHT22;26233;51.894;10.192;2023-04-25T14:59:57;13.10;32.90
40534;DHT22;26233;51.894;10.192;2023-04-25T15:02:24;13.20;33.00
40534;DHT22;26233;51.894;10.192;2023-04-25T15:04:52;13.40;33.20
40534;DHT22;26233;51.894;10.192;2023-04-25T15:07:19;13.60;33.90
40534;DHT22;26233;51.894;10.192;2023-04-25T15:09:48;13.80;32.90
40534;DHT22;26233;51.894;10.192;2023-04-25T15:12:15;13.90;32.90
40534;DHT22;26233;51.894;10.192;2023-04-25T15:14:42;14.10;33.00
40534;DHT22;26233;51.894;10.192;2023-04-25T15:17:10;14.20;32.90
40534;DHT22;26233;51.894;10.192;2023-04-25T15:19:39;14.20;32.90
40534;DHT22;26233;51.894;10.192;2023-04-25T15:22:06;14.40;33.00
40534;DHT22;26233;51.894;10.192;2023-04-25T15:24:33;14.50;32.90
40534;DHT22;26233;51.894;10.192;2023-04-25T15:27:02;14.60;32.60
40534;DHT22;26233;51.894;10.192;2023-04-25T15:29:30;14.60;32.10